sensor_id;sensor_type;location;lat;lon;timestamp;P1;durP1;ratioP1;P2;durP2;ratioP2
13269;SDS011;6703;51.994;7.570;2024-02-23T00:01:05;0.50;;;0.20;;
13269;SDS011;6703;51.994;7.570;2024-02-23T00:03:33;0.47;;;0.20;;
13269;SDS011;6703;51.994;7.570;2024-02-23T00:06:03;0.70;;;0.20;;
13269;SDS011;6703;51.994;7.570;2024-02-23T00:08:31;0.30;;;0.30;;
13269;SDS011;6703;51.994;7.570;2024-02-23T00:14:02;2.40;;;0.50;;
13269;SDS011;6703;51.994;7.570;2024-02-23T00:16:32;1.20;;;0.65;;
13269;SDS011;6703;51.994;7.570;2024-02-23T00:19:05;0.40;;;0.40;;
13269;SDS011;6703;51.994;7.570;2024-02-23T00:21:32;0.57;;;0.45;;
13269;SDS011;6703;51.994;7.570;2024-02-23T00:24:00;1.40;;;0.60;;
13269;SDS011;6703;51.994;7.570;2024-02-23T00:26:29;1.20;;;0.47;;
13269;SDS011;6703;51.994;7.570;2024-02-23T00:28:56;0.70;;;0.70;;
13269;SDS011;6703;51.994;7.570;2024-02-23T00:31:24;0.30;;;0.30;;
13269;SDS011;6703;51.994;7.570;2024-02-23T00:33:54;2.03;;;0.52;;
13269;SDS011;6703;51.994;7.570;2024-02-23T00:36:21;0.33;;;0.33;;
13269;SDS011;6703;51.994;7.570;2024-02-23T00:38:49;0.60;;;0.50;;
13269;SDS011;6703;51.994;7.570;2024-02-23T00:41:17;1.20;;;0.50;;
13269;SDS011;6703;51.994;7.570;2024-02-23T00:43:46;0.40;;;0.40;;
13269;SDS011;6703;51.994;7.570;2024-02-23T00:46:14;0.60;;;0.50;;
13269;SDS011;6703;51.994;7.570;2024-02-23T00:48:42;0.50;;;0.40;;
13269;SDS011;6703;51.994;7.570;2024-02-23T00:51:12;0.17;;;0.17;;
13269;SDS011;6703;51.994;7.570;2024-02-23T00:53:40;0.95;;;0.60;;
13269;SDS011;6703;51.994;7.570;2024-02-23T00:56:08;0.80;;;0.50;;
13269;SDS011;6703;51.994;7.570;2024-02-23T00:58:36;1.80;;;0.70;;
13269;SDS011;6703;51.994;7.570;2024-02-23T01:01:05;1.90;;;0.60;;
13269;SDS011;6703;51.994;7.570;2024-02-23T01:03:33;0.50;;;0.40;;
13269;SDS011;6703;51.994;7.570;2024-02-23T01:06:00;1.33;;;0.80;;
13269;SDS011;6703;51.994;7.570;2024-02-23T01:08:30;2.03;;;0.73;;
13269;SDS011;6703;51.994;7.570;2024-02-23T01:10:58;1.45;;;0.82;;
13269;SDS011;6703;51.994;7.570;2024-02-23T01:13:27;2.05;;;1.02;;
13269;SDS011;6703;51.994;7.570;2024-02-23T01:15:55;1.73;;;1.10;;
13269;SDS011;6703;51.994;7.570;2024-02-23T01:18:22;2.30;;;1.25;;
13269;SDS011;6703;51.994;7.570;2024-02-23T01:20:50;2.42;;;1.30;;
13269;SDS011;6703;51.994;7.570;2024-02-23T01:23:18;6.05;;;1.65;;
13269;SDS011;6703;51.994;7.570;2024-02-23T01:25:48;4.88;;;1.48;;
13269;SDS011;6703;51.994;7.570;2024-02-23T01:28:16;3.08;;;1.30;;
13269;SDS011;6703;51.994;7.570;2024-02-23T01:30:43;4.63;;;1.50;;
13269;SDS011;6703;51.994;7.570;2024-02-23T01:33:11;4.47;;;1.55;;
13269;SDS011;6703;51.994;7.570;2024-02-23T01:35:39;6.40;;;1.80;;
13269;SDS011;6703;51.994;7.570;2024-02-23T01:38:08;3.65;;;1.27;;
13269;SDS011;6703;51.994;7.570;2024-02-23T01:40:35;2.42;;;1.50;;
13269;SDS011;6703;51.994;7.570;2024-02-23T01:43:05;3.03;;;1.90;;
13269;SDS011;6703;51.994;7.570;2024-02-23T01:45:33;3.40;;;2.20;;
13269;SDS011;6703;51.994;7.570;2024-02-23T01:50:35;5.03;;;2.22;;
13269;SDS011;6703;51.994;7.570;2024-02-23T01:53:04;5.13;;;2.28;;
13269;SDS011;6703;51.994;7.570;2024-02-23T01:55:32;3.22;;;2.17;;
13269;SDS011;6703;51.994;7.570;2024-02-23T01:58:02;4.40;;;2.03;;
13269;SDS011;6703;51.994;7.570;2024-02-23T02:00:34;3.00;;;1.92;;
13269;SDS011;6703;51.994;7.570;2024-02-23T02:03:03;4.63;;;2.10;;
13269;SDS011;6703;51.994;7.570;2024-02-23T02:05:36;4.22;;;2.22;;
13269;SDS011;6703;51.994;7.570;2024-02-23T02:08:05;4.25;;;2.10;;
13269;SDS011;6703;51.994;7.570;2024-02-23T02:10:33;7.07;;;2.67;;
13269;SDS011;6703;51.994;7.570;2024-02-23T02:13:02;5.47;;;2.20;;
13269;SDS011;6703;51.994;7.570;2024-02-23T02:15:32;5.13;;;2.50;;
13269;SDS011;6703;51.994;7.570;2024-02-23T02:18:01;6.15;;;3.00;;
13269;SDS011;6703;51.994;7.570;2024-02-23T02:20:28;6.18;;;3.00;;
13269;SDS011;6703;51.994;7.570;2024-02-23T02:23:01;9.45;;;3.15;;
13269;SDS011;6703;51.994;7.570;2024-02-23T02:25:29;5.72;;;2.83;;
13269;SDS011;6703;51.994;7.570;2024-02-23T02:27:56;8.57;;;3.20;;
13269;SDS011;6703;51.994;7.570;2024-02-23T02:30:24;6.15;;;3.00;;
13269;SDS011;6703;51.994;7.570;2024-02-23T02:32:53;6.83;;;2.47;;
13269;SDS011;6703;51.994;7.570;2024-02-23T02:35:22;9.27;;;2.85;;
13269;SDS011;6703;51.994;7.570;2024-02-23T02:37:49;6.38;;;2.53;;
13269;SDS011;6703;51.994;7.570;2024-02-23T02:40:17;7.55;;;2.50;;
13269;SDS011;6703;51.994;7.570;2024-02-23T02:42:46;6.00;;;2.05;;
13269;SDS011;6703;51.994;7.570;2024-02-23T02:45:13;6.93;;;1.73;;
13269;SDS011;6703;51.994;7.570;2024-02-23T02:47:45;8.75;;;1.63;;
13269;SDS011;6703;51.994;7.570;2024-02-23T02:50:14;6.32;;;1.83;;
13269;SDS011;6703;51.994;7.570;2024-02-23T02:52:43;9.20;;;2.17;;
13269;SDS011;6703;51.994;7.570;2024-02-23T02:55:10;8.40;;;1.97;;
13269;SDS011;6703;51.994;7.570;2024-02-23T02:57:38;6.65;;;1.35;;
13269;SDS011;6703;51.994;7.570;2024-02-23T03:00:09;10.38;;;1.75;;
13269;SDS011;6703;51.994;7.570;2024-02-23T03:02:37;5.32;;;1.23;;
13269;SDS011;6703;51.994;7.570;2024-02-23T03:05:05;5.40;;;1.37;;
13269;SDS011;6703;51.994;7.570;2024-02-23T03:07:35;8.75;;;1.20;;
13269;SDS011;6703;51.994;7.570;2024-02-23T03:10:03;6.82;;;1.40;;
13269;SDS011;6703;51.994;7.570;2024-02-23T03:12:33;5.00;;;1.40;;
13269;SDS011;6703;51.994;7.570;2024-02-23T03:15:01;8.83;;;1.37;;
13269;SDS011;6703;51.994;7.570;2024-02-23T03:17:30;5.53;;;1.38;;
13269;SDS011;6703;51.994;7.570;2024-02-23T03:19:58;6.43;;;1.20;;
13269;SDS011;6703;51.994;7.570;2024-02-23T03:22:27;8.85;;;1.38;;
13269;SDS011;6703;51.994;7.570;2024-02-23T03:24:56;5.07;;;1.13;;
13269;SDS011;6703;51.994;7.570;2024-02-23T03:27:27;9.00;;;1.52;;
13269;SDS011;6703;51.994;7.570;2024-02-23T03:29:56;8.47;;;1.47;;
13269;SDS011;6703;51.994;7.570;2024-02-23T03:32:24;5.13;;;1.20;;
13269;SDS011;6703;51.994;7.570;2024-02-23T03:34:52;5.00;;;1.23;;
13269;SDS011;6703;51.994;7.570;2024-02-23T03:37:21;10.07;;;2.08;;
13269;SDS011;6703;51.994;7.570;2024-02-23T03:39:49;4.80;;;1.20;;
13269;SDS011;6703;51.994;7.570;2024-02-23T03:42:18;8.13;;;1.67;;
13269;SDS011;6703;51.994;7.570;2024-02-23T03:44:46;7.03;;;1.40;;
13269;SDS011;6703;51.994;7.570;2024-02-23T03:47:14;6.57;;;1.25;;
13269;SDS011;6703;51.994;7.570;2024-02-23T03:49:41;6.95;;;1.33;;
13269;SDS011;6703;51.994;7.570;2024-02-23T03:52:09;8.95;;;1.70;;
13269;SDS011;6703;51.994;7.570;2024-02-23T03:54:38;7.35;;;1.65;;
13269;SDS011;6703;51.994;7.570;2024-02-23T03:57:28;9.77;;;1.50;;
13269;SDS011;6703;51.994;7.570;2024-02-23T03:59:57;8.33;;;1.50;;
13269;SDS011;6703;51.994;7.570;2024-02-23T04:02:24;8.98;;;1.65;;
13269;SDS011;6703;51.994;7.570;2024-02-23T04:04:53;8.70;;;1.70;;
13269;SDS011;6703;51.994;7.570;2024-02-23T04:07:21;8.63;;;1.80;;
13269;SDS011;6703;51.994;7.570;2024-02-23T04:09:49;6.95;;;1.90;;
13269;SDS011;6703;51.994;7.570;2024-02-23T04:12:19;7.93;;;1.77;;
13269;SDS011;6703;51.994;7.570;2024-02-23T04:14:48;4.55;;;1.60;;
13269;SDS011;6703;51.994;7.570;2024-02-23T04:17:16;9.30;;;2.00;;
13269;SDS011;6703;51.994;7.570;2024-02-23T04:19:45;11.13;;;2.13;;
13269;SDS011;6703;51.994;7.570;2024-02-23T04:22:13;8.77;;;2.47;;
13269;SDS011;6703;51.994;7.570;2024-02-23T04:24:41;10.77;;;2.03;;
13269;SDS011;6703;51.994;7.570;2024-02-23T04:27:09;4.55;;;1.35;;
13269;SDS011;6703;51.994;7.570;2024-02-23T04:29:37;7.72;;;1.65;;
13269;SDS011;6703;51.994;7.570;2024-02-23T04:32:06;10.00;;;1.50;;
13269;SDS011;6703;51.994;7.570;2024-02-23T04:34:35;9.65;;;1.85;;
13269;SDS011;6703;51.994;7.570;2024-02-23T04:37:02;7.55;;;1.70;;
13269;SDS011;6703;51.994;7.570;2024-02-23T04:39:31;8.07;;;1.50;;
13269;SDS011;6703;51.994;7.570;2024-02-23T04:41:58;6.05;;;1.80;;
13269;SDS011;6703;51.994;7.570;2024-02-23T04:44:27;6.90;;;1.67;;
13269;SDS011;6703;51.994;7.570;2024-02-23T04:47:01;7.55;;;1.60;;
13269;SDS011;6703;51.994;7.570;2024-02-23T04:49:30;6.95;;;1.70;;
13269;SDS011;6703;51.994;7.570;2024-02-23T04:51:58;11.07;;;2.17;;
13269;SDS011;6703;51.994;7.570;2024-02-23T04:54:26;11.68;;;2.10;;
13269;SDS011;6703;51.994;7.570;2024-02-23T04:56:53;9.13;;;2.00;;
13269;SDS011;6703;51.994;7.570;2024-02-23T04:59:23;8.57;;;1.70;;
13269;SDS011;6703;51.994;7.570;2024-02-23T05:01:50;6.07;;;1.42;;
13269;SDS011;6703;51.994;7.570;2024-02-23T05:04:19;6.93;;;1.60;;
13269;SDS011;6703;51.994;7.570;2024-02-23T05:06:48;7.75;;;1.85;;
13269;SDS011;6703;51.994;7.570;2024-02-23T05:09:16;6.93;;;1.58;;
13269;SDS011;6703;51.994;7.570;2024-02-23T05:11:44;7.93;;;1.70;;
13269;SDS011;6703;51.994;7.570;2024-02-23T05:14:12;7.90;;;2.10;;
13269;SDS011;6703;51.994;7.570;2024-02-23T05:16:41;8.07;;;1.98;;
13269;SDS011;6703;51.994;7.570;2024-02-23T05:19:09;12.02;;;2.00;;
13269;SDS011;6703;51.994;7.570;2024-02-23T05:21:36;7.25;;;1.55;;
13269;SDS011;6703;51.994;7.570;2024-02-23T05:24:06;10.05;;;1.63;;
13269;SDS011;6703;51.994;7.570;2024-02-23T05:26:34;7.13;;;1.40;;
13269;SDS011;6703;51.994;7.570;2024-02-23T05:29:02;10.03;;;1.90;;
13269;SDS011;6703;51.994;7.570;2024-02-23T05:31:43;9.27;;;2.10;;
13269;SDS011;6703;51.994;7.570;2024-02-23T05:34:13;9.00;;;1.50;;
13269;SDS011;6703;51.994;7.570;2024-02-23T05:36:41;7.00;;;1.67;;
13269;SDS011;6703;51.994;7.570;2024-02-23T05:39:11;8.77;;;1.58;;
13269;SDS011;6703;51.994;7.570;2024-02-23T05:41:39;7.10;;;1.40;;
13269;SDS011;6703;51.994;7.570;2024-02-23T05:44:07;11.15;;;2.05;;
13269;SDS011;6703;51.994;7.570;2024-02-23T05:46:35;8.65;;;1.63;;
13269;SDS011;6703;51.994;7.570;2024-02-23T05:49:03;8.75;;;1.73;;
13269;SDS011;6703;51.994;7.570;2024-02-23T05:51:32;7.85;;;1.35;;
13269;SDS011;6703;51.994;7.570;2024-02-23T05:54:01;9.00;;;1.60;;
13269;SDS011;6703;51.994;7.570;2024-02-23T05:56:30;9.00;;;1.45;;
13269;SDS011;6703;51.994;7.570;2024-02-23T05:58:58;10.07;;;1.75;;
13269;SDS011;6703;51.994;7.570;2024-02-23T06:01:27;7.35;;;1.77;;
13269;SDS011;6703;51.994;7.570;2024-02-23T06:03:54;9.18;;;1.30;;
13269;SDS011;6703;51.994;7.570;2024-02-23T06:06:23;6.75;;;1.25;;
13269;SDS011;6703;51.994;7.570;2024-02-23T06:08:51;12.85;;;1.60;;
13269;SDS011;6703;51.994;7.570;2024-02-23T06:11:19;7.95;;;1.35;;
13269;SDS011;6703;51.994;7.570;2024-02-23T06:13:48;6.15;;;1.52;;
13269;SDS011;6703;51.994;7.570;2024-02-23T06:16:16;7.25;;;1.63;;
13269;SDS011;6703;51.994;7.570;2024-02-23T06:18:44;10.20;;;1.70;;
13269;SDS011;6703;51.994;7.570;2024-02-23T06:21:12;7.32;;;1.00;;
13269;SDS011;6703;51.994;7.570;2024-02-23T06:23:41;10.57;;;1.58;;
13269;SDS011;6703;51.994;7.570;2024-02-23T06:26:09;7.20;;;1.65;;
13269;SDS011;6703;51.994;7.570;2024-02-23T06:28:38;7.68;;;1.80;;
13269;SDS011;6703;51.994;7.570;2024-02-23T06:31:09;11.50;;;1.60;;
13269;SDS011;6703;51.994;7.570;2024-02-23T06:33:38;9.05;;;1.77;;
13269;SDS011;6703;51.994;7.570;2024-02-23T06:36:07;6.40;;;1.10;;
13269;SDS011;6703;51.994;7.570;2024-02-23T06:38:38;8.40;;;1.50;;
13269;SDS011;6703;51.994;7.570;2024-02-23T06:41:07;9.27;;;1.70;;
13269;SDS011;6703;51.994;7.570;2024-02-23T06:43:37;8.37;;;1.40;;
13269;SDS011;6703;51.994;7.570;2024-02-23T06:46:06;9.40;;;1.30;;
13269;SDS011;6703;51.994;7.570;2024-02-23T06:48:36;11.73;;;1.63;;
13269;SDS011;6703;51.994;7.570;2024-02-23T06:51:05;12.75;;;1.90;;
13269;SDS011;6703;51.994;7.570;2024-02-23T06:53:36;12.25;;;1.75;;
13269;SDS011;6703;51.994;7.570;2024-02-23T06:56:05;11.25;;;1.67;;
13269;SDS011;6703;51.994;7.570;2024-02-23T06:58:34;8.65;;;1.55;;
13269;SDS011;6703;51.994;7.570;2024-02-23T07:01:02;10.75;;;1.52;;
13269;SDS011;6703;51.994;7.570;2024-02-23T07:03:32;9.70;;;1.35;;
13269;SDS011;6703;51.994;7.570;2024-02-23T07:06:03;10.38;;;1.65;;
13269;SDS011;6703;51.994;7.570;2024-02-23T07:08:32;13.27;;;1.38;;
13269;SDS011;6703;51.994;7.570;2024-02-23T07:11:00;9.20;;;1.73;;
13269;SDS011;6703;51.994;7.570;2024-02-23T07:13:28;9.80;;;1.40;;
13269;SDS011;6703;51.994;7.570;2024-02-23T07:15:56;7.43;;;1.37;;
13269;SDS011;6703;51.994;7.570;2024-02-23T07:18:25;10.98;;;1.58;;
13269;SDS011;6703;51.994;7.570;2024-02-23T07:20:53;9.55;;;1.58;;
13269;SDS011;6703;51.994;7.570;2024-02-23T07:23:22;8.57;;;1.40;;
13269;SDS011;6703;51.994;7.570;2024-02-23T07:25:49;8.93;;;1.30;;
13269;SDS011;6703;51.994;7.570;2024-02-23T07:28:18;12.38;;;1.60;;
13269;SDS011;6703;51.994;7.570;2024-02-23T07:30:46;11.18;;;1.85;;
13269;SDS011;6703;51.994;7.570;2024-02-23T07:33:14;6.80;;;1.17;;
13269;SDS011;6703;51.994;7.570;2024-02-23T07:35:42;9.20;;;2.07;;
13269;SDS011;6703;51.994;7.570;2024-02-23T07:38:10;10.07;;;1.50;;
13269;SDS011;6703;51.994;7.570;2024-02-23T07:40:40;9.55;;;1.48;;
13269;SDS011;6703;51.994;7.570;2024-02-23T07:43:08;12.00;;;1.42;;
13269;SDS011;6703;51.994;7.570;2024-02-23T07:45:37;10.70;;;1.60;;
13269;SDS011;6703;51.994;7.570;2024-02-23T07:48:05;10.38;;;1.60;;
13269;SDS011;6703;51.994;7.570;2024-02-23T07:50:35;8.63;;;1.42;;
13269;SDS011;6703;51.994;7.570;2024-02-23T07:53:03;9.55;;;1.50;;
13269;SDS011;6703;51.994;7.570;2024-02-23T07:55:31;8.65;;;1.60;;
13269;SDS011;6703;51.994;7.570;2024-02-23T07:58:01;11.65;;;1.42;;
13269;SDS011;6703;51.994;7.570;2024-02-23T08:00:29;10.20;;;1.75;;
13269;SDS011;6703;51.994;7.570;2024-02-23T08:02:58;9.75;;;1.20;;
13269;SDS011;6703;51.994;7.570;2024-02-23T08:05:26;7.18;;;1.35;;
13269;SDS011;6703;51.994;7.570;2024-02-23T08:07:54;6.80;;;1.25;;
13269;SDS011;6703;51.994;7.570;2024-02-23T08:10:22;12.77;;;1.87;;
13269;SDS011;6703;51.994;7.570;2024-02-23T08:12:52;9.07;;;1.40;;
13269;SDS011;6703;51.994;7.570;2024-02-23T08:15:21;5.97;;;1.40;;
13269;SDS011;6703;51.994;7.570;2024-02-23T08:17:49;6.13;;;1.35;;
13269;SDS011;6703;51.994;7.570;2024-02-23T08:20:17;13.45;;;1.77;;
13269;SDS011;6703;51.994;7.570;2024-02-23T08:22:45;14.73;;;1.83;;
13269;SDS011;6703;51.994;7.570;2024-02-23T08:25:14;8.02;;;1.50;;
13269;SDS011;6703;51.994;7.570;2024-02-23T08:27:42;6.90;;;1.33;;
13269;SDS011;6703;51.994;7.570;2024-02-23T08:30:12;8.10;;;1.63;;
13269;SDS011;6703;51.994;7.570;2024-02-23T08:32:42;8.85;;;1.52;;
13269;SDS011;6703;51.994;7.570;2024-02-23T08:35:10;10.30;;;1.60;;
13269;SDS011;6703;51.994;7.570;2024-02-23T08:37:38;9.60;;;1.50;;
13269;SDS011;6703;51.994;7.570;2024-02-23T08:40:07;7.45;;;1.40;;
13269;SDS011;6703;51.994;7.570;2024-02-23T08:42:36;8.38;;;1.33;;
13269;SDS011;6703;51.994;7.570;2024-02-23T08:45:04;6.70;;;1.30;;
13269;SDS011;6703;51.994;7.570;2024-02-23T08:47:33;9.40;;;1.70;;
13269;SDS011;6703;51.994;7.570;2024-02-23T08:50:04;5.88;;;1.27;;
13269;SDS011;6703;51.994;7.570;2024-02-23T08:52:33;7.65;;;1.50;;
13269;SDS011;6703;51.994;7.570;2024-02-23T08:55:01;11.23;;;1.60;;
13269;SDS011;6703;51.994;7.570;2024-02-23T08:57:29;8.10;;;1.23;;
13269;SDS011;6703;51.994;7.570;2024-02-23T08:59:57;8.45;;;1.48;;
13269;SDS011;6703;51.994;7.570;2024-02-23T09:02:25;12.98;;;1.50;;
13269;SDS011;6703;51.994;7.570;2024-02-23T09:04:53;12.20;;;1.83;;
13269;SDS011;6703;51.994;7.570;2024-02-23T09:07:22;7.00;;;1.30;;
13269;SDS011;6703;51.994;7.570;2024-02-23T09:09:51;8.65;;;1.58;;
13269;SDS011;6703;51.994;7.570;2024-02-23T09:12:19;6.90;;;1.27;;
13269;SDS011;6703;51.994;7.570;2024-02-23T09:14:47;7.72;;;1.40;;
13269;SDS011;6703;51.994;7.570;2024-02-23T09:17:15;8.65;;;1.48;;
13269;SDS011;6703;51.994;7.570;2024-02-23T09:19:45;5.65;;;1.08;;
13269;SDS011;6703;51.994;7.570;2024-02-23T09:22:13;7.25;;;1.50;;
13269;SDS011;6703;51.994;7.570;2024-02-23T09:24:43;7.57;;;1.40;;
13269;SDS011;6703;51.994;7.570;2024-02-23T09:27:11;7.10;;;1.30;;
13269;SDS011;6703;51.994;7.570;2024-02-23T09:29:40;9.50;;;1.92;;
13269;SDS011;6703;51.994;7.570;2024-02-23T09:32:10;9.02;;;2.35;;
13269;SDS011;6703;51.994;7.570;2024-02-23T09:34:38;7.53;;;1.10;;
13269;SDS011;6703;51.994;7.570;2024-02-23T09:37:06;8.55;;;2.17;;
13269;SDS011;6703;51.994;7.570;2024-02-23T09:39:34;6.82;;;1.35;;
13269;SDS011;6703;51.994;7.570;2024-02-23T09:42:03;9.23;;;1.42;;
13269;SDS011;6703;51.994;7.570;2024-02-23T09:44:35;7.57;;;1.20;;
13269;SDS011;6703;51.994;7.570;2024-02-23T09:47:04;7.97;;;1.50;;
13269;SDS011;6703;51.994;7.570;2024-02-23T09:49:37;6.63;;;1.10;;
13269;SDS011;6703;51.994;7.570;2024-02-23T09:52:06;6.68;;;1.20;;
13269;SDS011;6703;51.994;7.570;2024-02-23T09:54:36;7.93;;;1.40;;
13269;SDS011;6703;51.994;7.570;2024-02-23T09:57:07;10.73;;;1.58;;
13269;SDS011;6703;51.994;7.570;2024-02-23T09:59:36;5.00;;;1.10;;
13269;SDS011;6703;51.994;7.570;2024-02-23T10:02:25;7.15;;;1.50;;
13269;SDS011;6703;51.994;7.570;2024-02-23T10:04:53;7.18;;;1.33;;
13269;SDS011;6703;51.994;7.570;2024-02-23T10:07:21;7.72;;;1.30;;
13269;SDS011;6703;51.994;7.570;2024-02-23T10:09:52;5.03;;;1.30;;
13269;SDS011;6703;51.994;7.570;2024-02-23T10:12:23;5.80;;;1.10;;
13269;SDS011;6703;51.994;7.570;2024-02-23T10:14:51;6.68;;;1.30;;
13269;SDS011;6703;51.994;7.570;2024-02-23T10:17:19;6.53;;;0.90;;
13269;SDS011;6703;51.994;7.570;2024-02-23T10:19:48;6.28;;;1.30;;
13269;SDS011;6703;51.994;7.570;2024-02-23T10:22:16;8.43;;;1.60;;
13269;SDS011;6703;51.994;7.570;2024-02-23T10:24:44;8.63;;;2.03;;
13269;SDS011;6703;51.994;7.570;2024-02-23T10:27:12;6.97;;;1.20;;
13269;SDS011;6703;51.994;7.570;2024-02-23T10:29:41;6.47;;;1.02;;
13269;SDS011;6703;51.994;7.570;2024-02-23T10:32:09;8.07;;;1.48;;
13269;SDS011;6703;51.994;7.570;2024-02-23T10:34:42;5.55;;;1.10;;
13269;SDS011;6703;51.994;7.570;2024-02-23T10:37:11;7.32;;;1.38;;
13269;SDS011;6703;51.994;7.570;2024-02-23T10:39:39;6.75;;;1.17;;
13269;SDS011;6703;51.994;7.570;2024-02-23T10:42:08;11.00;;;3.40;;
13269;SDS011;6703;51.994;7.570;2024-02-23T10:44:37;8.45;;;1.75;;
13269;SDS011;6703;51.994;7.570;2024-02-23T10:47:06;7.40;;;1.40;;
13269;SDS011;6703;51.994;7.570;2024-02-23T10:49:34;8.23;;;1.40;;
13269;SDS011;6703;51.994;7.570;2024-02-23T10:52:04;6.47;;;1.65;;
13269;SDS011;6703;51.994;7.570;2024-02-23T10:54:33;9.43;;;1.42;;
13269;SDS011;6703;51.994;7.570;2024-02-23T10:57:03;6.32;;;1.50;;
13269;SDS011;6703;51.994;7.570;2024-02-23T10:59:31;5.38;;;1.10;;
13269;SDS011;6703;51.994;7.570;2024-02-23T11:01:59;6.47;;;1.10;;
13269;SDS011;6703;51.994;7.570;2024-02-23T11:04:29;13.38;;;1.58;;
13269;SDS011;6703;51.994;7.570;2024-02-23T11:07:02;7.57;;;1.50;;
13269;SDS011;6703;51.994;7.570;2024-02-23T11:09:34;4.93;;;1.10;;
13269;SDS011;6703;51.994;7.570;2024-02-23T11:12:03;7.47;;;1.20;;
13269;SDS011;6703;51.994;7.570;2024-02-23T11:14:34;6.07;;;1.23;;
13269;SDS011;6703;51.994;7.570;2024-02-23T11:17:03;10.18;;;1.70;;
13269;SDS011;6703;51.994;7.570;2024-02-23T11:19:33;7.90;;;1.40;;
13269;SDS011;6703;51.994;7.570;2024-02-23T11:22:03;7.13;;;1.48;;
13269;SDS011;6703;51.994;7.570;2024-02-23T11:24:42;6.53;;;1.60;;
13269;SDS011;6703;51.994;7.570;2024-02-23T11:27:13;9.40;;;1.63;;
13269;SDS011;6703;51.994;7.570;2024-02-23T11:29:45;7.50;;;1.45;;
13269;SDS011;6703;51.994;7.570;2024-02-23T11:32:13;6.88;;;1.50;;
13269;SDS011;6703;51.994;7.570;2024-02-23T11:34:55;8.90;;;1.60;;
13269;SDS011;6703;51.994;7.570;2024-02-23T11:37:23;6.82;;;1.60;;
13269;SDS011;6703;51.994;7.570;2024-02-23T11:39:51;6.78;;;1.30;;
13269;SDS011;6703;51.994;7.570;2024-02-23T11:42:19;7.97;;;1.30;;
13269;SDS011;6703;51.994;7.570;2024-02-23T11:44:47;9.35;;;1.33;;
13269;SDS011;6703;51.994;7.570;2024-02-23T11:47:15;6.10;;;1.40;;
13269;SDS011;6703;51.994;7.570;2024-02-23T11:49:44;6.88;;;1.30;;
13269;SDS011;6703;51.994;7.570;2024-02-23T11:52:13;6.03;;;1.38;;
13269;SDS011;6703;51.994;7.570;2024-02-23T11:54:41;6.97;;;1.60;;
13269;SDS011;6703;51.994;7.570;2024-02-23T11:57:09;6.90;;;1.40;;
13269;SDS011;6703;51.994;7.570;2024-02-23T11:59:37;4.90;;;1.10;;
13269;SDS011;6703;51.994;7.570;2024-02-23T12:02:16;5.68;;;1.20;;
13269;SDS011;6703;51.994;7.570;2024-02-23T12:04:44;5.05;;;0.85;;
13269;SDS011;6703;51.994;7.570;2024-02-23T12:07:13;6.82;;;1.02;;
13269;SDS011;6703;51.994;7.570;2024-02-23T12:09:44;5.97;;;0.98;;
13269;SDS011;6703;51.994;7.570;2024-02-23T12:12:12;4.10;;;1.13;;
13269;SDS011;6703;51.994;7.570;2024-02-23T12:14:40;4.85;;;1.00;;
13269;SDS011;6703;51.994;7.570;2024-02-23T12:17:08;4.10;;;0.85;;
13269;SDS011;6703;51.994;7.570;2024-02-23T12:19:37;5.53;;;1.23;;
13269;SDS011;6703;51.994;7.570;2024-02-23T12:22:07;6.60;;;1.10;;
13269;SDS011;6703;51.994;7.570;2024-02-23T12:24:36;6.93;;;1.10;;
13269;SDS011;6703;51.994;7.570;2024-02-23T12:27:04;9.48;;;1.15;;
13269;SDS011;6703;51.994;7.570;2024-02-23T12:29:32;6.03;;;0.90;;
13269;SDS011;6703;51.994;7.570;2024-02-23T12:34:40;4.82;;;1.20;;
13269;SDS011;6703;51.994;7.570;2024-02-23T12:37:13;4.00;;;0.98;;
13269;SDS011;6703;51.994;7.570;2024-02-23T12:39:43;3.95;;;0.77;;
13269;SDS011;6703;51.994;7.570;2024-02-23T12:42:10;5.93;;;0.75;;
13269;SDS011;6703;51.994;7.570;2024-02-23T12:44:39;5.32;;;0.90;;
13269;SDS011;6703;51.994;7.570;2024-02-23T12:47:07;4.32;;;1.00;;
13269;SDS011;6703;51.994;7.570;2024-02-23T12:49:41;5.93;;;0.90;;
13269;SDS011;6703;51.994;7.570;2024-02-23T12:52:11;3.88;;;1.02;;
13269;SDS011;6703;51.994;7.570;2024-02-23T12:54:39;7.72;;;1.20;;
13269;SDS011;6703;51.994;7.570;2024-02-23T12:57:09;6.60;;;1.10;;
13269;SDS011;6703;51.994;7.570;2024-02-23T12:59:37;7.18;;;1.30;;
13269;SDS011;6703;51.994;7.570;2024-02-23T13:02:05;5.15;;;1.02;;
13269;SDS011;6703;51.994;7.570;2024-02-23T13:04:35;6.73;;;0.93;;
13269;SDS011;6703;51.994;7.570;2024-02-23T13:07:03;6.65;;;1.25;;
13269;SDS011;6703;51.994;7.570;2024-02-23T13:09:31;4.13;;;0.90;;
13269;SDS011;6703;51.994;7.570;2024-02-23T13:11:59;5.43;;;1.35;;
13269;SDS011;6703;51.994;7.570;2024-02-23T13:14:29;5.15;;;1.20;;
13269;SDS011;6703;51.994;7.570;2024-02-23T13:16:57;5.13;;;1.00;;
13269;SDS011;6703;51.994;7.570;2024-02-23T13:19:25;6.07;;;1.02;;
13269;SDS011;6703;51.994;7.570;2024-02-23T13:21:53;3.38;;;0.85;;
13269;SDS011;6703;51.994;7.570;2024-02-23T13:24:21;6.28;;;1.58;;
13269;SDS011;6703;51.994;7.570;2024-02-23T13:26:49;5.93;;;1.30;;
13269;SDS011;6703;51.994;7.570;2024-02-23T13:29:17;5.72;;;1.08;;
13269;SDS011;6703;51.994;7.570;2024-02-23T13:31:46;5.30;;;1.10;;
13269;SDS011;6703;51.994;7.570;2024-02-23T13:34:14;13.90;;;1.60;;
13269;SDS011;6703;51.994;7.570;2024-02-23T13:36:44;8.18;;;1.70;;
13269;SDS011;6703;51.994;7.570;2024-02-23T13:39:12;6.88;;;1.30;;
13269;SDS011;6703;51.994;7.570;2024-02-23T13:41:40;8.77;;;1.50;;
13269;SDS011;6703;51.994;7.570;2024-02-23T13:44:26;8.07;;;1.77;;
13269;SDS011;6703;51.994;7.570;2024-02-23T13:46:56;7.15;;;1.17;;
13269;SDS011;6703;51.994;7.570;2024-02-23T13:49:23;6.72;;;1.33;;
13269;SDS011;6703;51.994;7.570;2024-02-23T13:51:52;8.73;;;1.60;;
13269;SDS011;6703;51.994;7.570;2024-02-23T13:54:20;7.00;;;1.20;;
13269;SDS011;6703;51.994;7.570;2024-02-23T13:56:48;6.18;;;1.33;;
13269;SDS011;6703;51.994;7.570;2024-02-23T13:59:16;10.33;;;2.00;;
13269;SDS011;6703;51.994;7.570;2024-02-23T14:01:44;7.25;;;1.30;;
13269;SDS011;6703;51.994;7.570;2024-02-23T14:04:13;7.05;;;1.23;;
13269;SDS011;6703;51.994;7.570;2024-02-23T14:06:41;10.75;;;1.45;;
13269;SDS011;6703;51.994;7.570;2024-02-23T14:09:09;7.93;;;1.48;;
13269;SDS011;6703;51.994;7.570;2024-02-23T14:11:37;5.80;;;1.23;;
13269;SDS011;6703;51.994;7.570;2024-02-23T14:14:06;8.88;;;1.20;;
13269;SDS011;6703;51.994;7.570;2024-02-23T14:16:34;5.30;;;1.30;;
13269;SDS011;6703;51.994;7.570;2024-02-23T14:19:02;6.38;;;1.17;;
13269;SDS011;6703;51.994;7.570;2024-02-23T14:21:32;8.38;;;1.42;;
13269;SDS011;6703;51.994;7.570;2024-02-23T14:24:01;6.28;;;1.50;;
13269;SDS011;6703;51.994;7.570;2024-02-23T14:26:29;7.97;;;1.88;;
13269;SDS011;6703;51.994;7.570;2024-02-23T14:28:57;5.75;;;1.85;;
13269;SDS011;6703;51.994;7.570;2024-02-23T14:31:26;6.80;;;1.13;;
13269;SDS011;6703;51.994;7.570;2024-02-23T14:33:54;7.13;;;1.10;;
13269;SDS011;6703;51.994;7.570;2024-02-23T14:36:22;7.80;;;1.90;;
13269;SDS011;6703;51.994;7.570;2024-02-23T14:38:52;9.02;;;2.13;;
13269;SDS011;6703;51.994;7.570;2024-02-23T14:41:19;6.80;;;1.40;;
13269;SDS011;6703;51.994;7.570;2024-02-23T14:43:49;7.70;;;1.58;;
13269;SDS011;6703;51.994;7.570;2024-02-23T14:46:17;8.45;;;1.30;;
13269;SDS011;6703;51.994;7.570;2024-02-23T14:48:45;6.18;;;1.48;;
13269;SDS011;6703;51.994;7.570;2024-02-23T14:51:15;6.13;;;1.23;;
13269;SDS011;6703;51.994;7.570;2024-02-23T14:53:43;8.03;;;1.60;;
13269;SDS011;6703;51.994;7.570;2024-02-23T14:56:13;6.27;;;1.20;;
13269;SDS011;6703;51.994;7.570;2024-02-23T14:58:41;5.82;;;1.30;;
13269;SDS011;6703;51.994;7.570;2024-02-23T15:01:09;6.78;;;1.15;;
13269;SDS011;6703;51.994;7.570;2024-02-23T15:03:37;8.52;;;1.50;;
13269;SDS011;6703;51.994;7.570;2024-02-23T15:06:05;5.13;;;1.50;;
13269;SDS011;6703;51.994;7.570;2024-02-23T15:11:28;7.75;;;1.38;;
13269;SDS011;6703;51.994;7.570;2024-02-23T15:13:56;9.07;;;1.90;;
13269;SDS011;6703;51.994;7.570;2024-02-23T15:16:25;9.57;;;2.33;;
13269;SDS011;6703;51.994;7.570;2024-02-23T15:18:53;12.05;;;2.08;;
13269;SDS011;6703;51.994;7.570;2024-02-23T15:21:22;8.77;;;1.60;;